Terminal Aerodrome Forecast
Issued by NWS Pueblo, CO

Home | Current Version | Previous Version | Text Only | Print | Product List | Glossary On
Versions: 1 2 3 4 5 6 7 8 9 10 11 12 13 14 15 16 17 18 19 20 21 22 23 24 25 26 27 28 29 30 31 32 33 34 35 36 37 38 39 40 41 42 43 44 45 46 47 48 49 50
752
FTUS45 KPUB 302247 AAC
TAFPUB
TAF AMD
KPUB 302247Z 3023/3118 24015G25KT P6SM VCTS FEW050 SCT080CB BKN110
      TEMPO 3023/3024 VRB25G45KT TSRA BKN050CB
     FM310000 03012KT P6SM VCTS FEW050 SCT080CB BKN110
     FM310200 09011KT P6SM SCT080 BKN150
     FM310400 VRB06KT P6SM SCT070=

USA.gov is the U.S. government's official web portal to all federal, state and local government web resources and services.